Time;durP1;ratioP1;P1;durP2;ratioP2;P2;SDS_P1;SDS_P2;PMS_P1;PMS_P2;Temp;Humidity;BMP_temperature;BMP_pressure;BME280_temperature;BME280_humidity;BME280_pressure;Samples;Min_cycle;Max_cycle;Signal;HPM_P1;HPM_P2
2021/08/30 00:01:04;;;;;;;1999.90;999.90;;;16.70;99.90;;;;;;5038641;28;20384;-82
2021/08/30 00:03:44;;;;;;;1999.90;999.90;;;16.70;99.90;;;;;;5038679;28;20389;-83
2021/08/30 00:06:24;;;;;;;1999.90;999.90;;;16.70;99.90;;;;;;5038441;28;20458;-83
2021/08/30 00:09:06;;;;;;;;;;;;;;;;;;;;;
2021/08/30 00:11:57;;;;;;;1999.90;999.90;;;16.70;99.90;;;;;;5038506;28;20440;-82
2021/08/30 00:14:31;;;;;;;1999.90;999.90;;;16.70;99.90;;;;;;5038917;28;20384;-82
2021/08/30 00:17:06;;;;;;;1999.90;999.90;;;16.70;99.90;;;;;;5020262;28;20463;-82
2021/08/30 00:19:36;;;;;;;1999.90;999.90;;;16.70;99.90;;;;;;5038620;28;20443;-83
2021/08/30 00:22:06;;;;;;;1999.90;999.90;;;16.60;99.90;;;;;;5037859;28;20407;-81
2021/08/30 00:25:09;;;;;;;1999.90;999.90;;;16.70;99.90;;;;;;5034326;28;20461;-81
2021/08/30 00:27:53;;;;;;;1999.90;999.90;;;16.70;99.90;;;;;;5018849;28;20482;-81
2021/08/30 00:30:55;;;;;;;1999.90;999.90;;;16.70;99.90;;;;;;5034074;28;20404;-81
2021/08/30 00:34:01;;;;;;;1999.90;999.90;;;16.70;99.90;;;;;;5023037;28;20931;-81
2021/08/30 00:36:58;;;;;;;1999.90;999.90;;;16.70;99.90;;;;;;5034078;28;20426;-82
2021/08/30 00:39:32;;;;;;;1999.90;999.90;;;16.70;99.90;;;;;;5027316;28;20457;-82
2021/08/30 00:42:22;;;;;;;1999.90;999.90;;;16.80;99.90;;;;;;5034102;28;20409;-82
2021/08/30 00:45:10;;;;;;;1999.90;999.90;;;16.70;99.90;;;;;;5034517;28;20385;-81
2021/08/30 00:48:25;;;;;;;1999.90;999.90;;;16.70;99.90;;;;;;5042260;22;20506;-82
2021/08/30 00:51:28;;;;;;;1999.90;999.90;;;16.70;99.90;;;;;;5034537;28;20412;-81
2021/08/30 00:54:08;;;;;;;1999.90;999.90;;;16.60;99.90;;;;;;5034612;28;20414;-82
2021/08/30 00:56:43;;;;;;;1999.90;999.90;;;16.70;99.90;;;;;;5034467;28;20817;-82
2021/08/30 00:59:40;;;;;;;1999.90;999.90;;;16.60;99.90;;;;;;5034708;28;20529;-83
2021/08/30 01:02:55;;;;;;;1999.90;999.90;;;16.70;99.90;;;;;;5019493;28;20429;-82
2021/08/30 01:05:35;;;;;;;1999.90;999.90;;;16.70;99.90;;;;;;4976564;28;20430;-82
2021/08/30 01:08:29;;;;;;;1999.90;999.90;;;16.70;99.90;;;;;;5038003;28;20417;-82
2021/08/30 01:11:13;;;;;;;1999.90;999.90;;;16.70;99.90;;;;;;5020501;28;20438;-84
2021/08/30 01:13:58;;;;;;;1999.90;999.90;;;16.70;99.90;;;;;;5038508;28;20399;-83
2021/08/30 01:17:20;;;;;;;1999.90;999.90;;;16.70;99.90;;;;;;5037500;28;20426;-82
2021/08/30 01:20:41;;;;;;;1999.90;999.90;;;16.70;99.90;;;;;;5037595;28;20459;-83
2021/08/30 01:23:21;;;;;;;1999.90;999.90;;;16.70;99.90;;;;;;5036966;28;20944;-82
2021/08/30 01:26:22;;;;;;;1999.90;999.90;;;16.70;99.90;;;;;;5036861;28;20791;-82
2021/08/30 01:29:20;;;;;;;1999.90;999.90;;;16.70;99.90;;;;;;5037216;28;20771;-82
2021/08/30 01:32:16;;;;;;;1999.90;999.90;;;16.70;99.90;;;;;;4957347;29;20414;-83
2021/08/30 01:35:41;;;;;;;1999.90;999.90;;;16.70;99.90;;;;;;5016136;28;20420;-81
2021/08/30 01:38:58;;;;;;;1999.90;999.90;;;16.70;99.90;;;;;;5028990;28;20451;-82
2021/08/30 01:41:54;;;;;;;1999.90;999.90;;;16.70;99.90;;;;;;4996389;28;20427;-81
2021/08/30 01:44:54;;;;;;;1999.90;999.90;;;16.70;99.90;;;;;;5016853;28;20504;-82
2021/08/30 01:47:53;;;;;;;1999.90;999.90;;;16.70;99.90;;;;;;5033546;28;20427;-81
2021/08/30 01:51:09;;;;;;;1999.90;999.90;;;16.60;99.90;;;;;;4953324;29;20999;-81
2021/08/30 01:54:01;;;;;;;1999.90;999.90;;;16.60;99.90;;;;;;5028547;28;20408;-83
2021/08/30 01:56:49;;;;;;;;;;;;;;;;;;;;;
2021/08/30 02:10:00;;;;;;;1999.90;999.90;;;16.60;99.90;;;;;;4937950;29;20406;-84
2021/08/30 02:12:46;;;;;;;1999.90;999.90;;;16.60;99.90;;;;;;4937292;29;20460;-83
2021/08/30 02:15:24;;;;;;;1999.90;999.90;;;16.60;99.90;;;;;;4924764;29;21026;-82
2021/08/30 02:22:14;;;;;;;1999.90;999.90;;;16.60;99.90;;;;;;4892187;29;20442;-83
2021/08/30 02:25:09;;;;;;;1999.90;999.90;;;16.60;99.90;;;;;;4868479;29;20475;-83
2021/08/30 02:27:57;;;;;;;1999.90;999.90;;;16.60;99.90;;;;;;4941646;29;20804;-84
2021/08/30 02:33:38;;;;;;;1999.90;999.90;;;16.50;99.90;;;;;;5006833;28;20415;-83
2021/08/30 02:36:40;;;;;;;1999.90;999.90;;;16.50;99.90;;;;;;5020539;28;20440;-82
2021/08/30 02:39:46;;;;;;;1999.90;999.90;;;16.50;99.90;;;;;;5040338;28;20465;-82
2021/08/30 02:42:38;;;;;;;1999.90;999.90;;;16.60;99.90;;;;;;5040618;28;20391;-83
2021/08/30 02:48:41;;;;;;;1999.90;999.90;;;16.60;99.90;;;;;;5041987;28;20393;-84
2021/08/30 02:51:54;;;;;;;1999.90;999.90;;;16.60;99.90;;;;;;5041294;28;20427;-84
2021/08/30 02:54:39;;;;;;;1999.90;999.90;;;16.60;99.90;;;;;;5021404;28;20469;-83
2021/08/30 02:59:55;;;;;;;1999.90;999.90;;;16.60;99.90;;;;;;816699;26;20816;-84
2021/08/30 03:06:05;;;;;;;1999.90;999.90;;;16.50;99.90;;;;;;5027637;28;20421;-83
2021/08/30 03:12:46;;;;;;;;;;;;;;;;;;;;;
2021/08/30 03:26:14;;;;;;;1999.90;999.90;;;16.50;99.90;;;;;;5015725;28;20413;-84
2021/08/30 03:29:40;;;;;;;1999.90;999.90;;;16.50;99.90;;;;;;5019266;28;20445;-83
2021/08/30 03:35:57;;;;;;;1999.90;999.90;;;16.50;99.90;;;;;;4902219;29;20433;-83
2021/08/30 03:39:27;;;;;;;;;;;;;;;;;;;;;
2021/08/30 03:46:08;;;;;;;1999.90;999.90;;;16.50;99.90;;;;;;4886651;29;20442;-84
2021/08/30 03:52:07;;;;;;;1999.90;999.90;;;16.60;99.90;;;;;;4902966;29;20398;-84
2021/08/30 03:58:18;;;;;;;1999.90;999.90;;;16.50;99.90;;;;;;4857659;29;20496;-84
2021/08/30 04:01:26;;;;;;;;;;;;;;;;;;;;;
2021/08/30 04:11:20;;;;;;;;;;;;;;;;;;;;;
2021/08/30 04:25:58;;;;;;;1999.90;999.90;;;16.40;99.90;;;;;;4901859;29;20812;-84
2021/08/30 04:29:32;;;;;;;;;;;;;;;;;;;;;
2021/08/30 04:35:44;;;;;;;1999.90;999.90;;;16.40;99.90;;;;;;4857511;29;20435;-84
2021/08/30 04:38:13;;;;;;;1999.90;999.90;;;16.30;99.90;;;;;;4866323;29;20453;-84
2021/08/30 04:41:14;;;;;;;1999.90;999.90;;;16.40;99.90;;;;;;4867094;29;20458;-84
2021/08/30 04:45:16;;;;;;;1999.90;999.90;;;16.40;99.90;;;;;;4884059;29;20413;-84
2021/08/30 04:51:21;;;;;;;1999.90;999.90;;;16.40;99.90;;;;;;5018950;28;20415;-84
2021/08/30 04:54:24;;;;;;;;;;;;;;;;;;;;;
2021/08/30 04:57:45;;;;;;;1999.90;999.90;;;16.40;99.90;;;;;;4918438;29;20641;-84
2021/08/30 05:00:55;;;;;;;;;;;;;;;;;;;;;
2021/08/30 05:04:09;;;;;;;;;;;;;;;;;;;;;
2021/08/30 05:07:02;;;;;;;1999.90;999.90;;;16.40;99.90;;;;;;4843064;29;20553;-83
2021/08/30 05:09:44;;;;;;;1999.90;999.90;;;16.40;99.90;;;;;;4844468;29;20435;-83
2021/08/30 05:13:30;;;;;;;;;;;;;;;;;;;;;
2021/08/30 05:18:43;;;;;;;1999.90;999.90;;;16.40;99.90;;;;;;3846455;26;20568;-84
2021/08/30 05:29:01;;;;;;;1999.90;999.90;;;16.40;99.90;;;;;;4911703;28;20954;-84
2021/08/30 05:40:57;;;;;;;1999.90;999.90;;;16.50;99.90;;;;;;4999892;28;20419;-85
2021/08/30 05:43:46;;;;;;;1999.90;999.90;;;16.50;99.90;;;;;;5010427;28;20424;-85
2021/08/30 05:46:56;;;;;;;1999.90;999.90;;;16.50;99.90;;;;;;5023441;28;20434;-85
2021/08/30 05:49:51;;;;;;;1999.90;999.90;;;16.50;99.90;;;;;;5020426;28;20408;-85
2021/08/30 05:52:25;;;;;;;1999.90;999.90;;;16.50;99.90;;;;;;5027192;28;20550;-84
2021/08/30 05:55:16;;;;;;;1999.90;999.90;;;16.40;99.90;;;;;;5046118;28;20390;-85
2021/08/30 05:58:21;;;;;;;;;;;;;;;;;;;;;
2021/08/30 06:00:53;;;;;;;1999.90;999.90;;;16.40;99.90;;;;;;5019990;28;20484;-85
2021/08/30 06:03:28;;;;;;;1999.90;999.90;;;16.40;99.90;;;;;;5023672;28;20407;-85
2021/08/30 06:06:35;;;;;;;1999.90;999.90;;;16.40;99.90;;;;;;5023022;28;20843;-85
2021/08/30 06:09:13;;;;;;;1999.90;999.90;;;16.40;99.90;;;;;;4990649;28;20419;-85
2021/08/30 06:14:42;;;;;;;1999.90;999.90;;;16.50;99.90;;;;;;5041133;28;20756;-85
2021/08/30 06:17:15;;;;;;;1999.90;999.90;;;16.50;99.90;;;;;;5023110;28;20429;-85
2021/08/30 06:20:22;;;;;;;;;;;;;;;;;;;;;
2021/08/30 06:23:04;;;;;;;1999.90;999.90;;;16.60;99.90;;;;;;4961524;29;20494;-85
2021/08/30 06:25:49;;;;;;;1999.90;999.90;;;16.60;99.90;;;;;;5022855;28;20415;-85
2021/08/30 06:28:50;;;;;;;1999.90;999.90;;;16.70;99.90;;;;;;5021579;28;20455;-85
2021/08/30 06:31:27;;;;;;;1999.90;999.90;;;16.70;99.90;;;;;;5040092;28;20412;-85
2021/08/30 06:34:08;;;;;;;1999.90;999.90;;;16.70;99.90;;;;;;5041241;28;20781;-85
2021/08/30 06:36:43;;;;;;;1999.90;999.90;;;16.70;99.90;;;;;;5021067;28;20465;-85
2021/08/30 06:39:13;;;;;;;1999.90;999.90;;;16.80;99.90;;;;;;5022661;28;20517;-85
2021/08/30 06:41:45;;;;;;;1999.90;999.90;;;16.80;99.90;;;;;;5019687;28;20417;-85
2021/08/30 06:44:17;;;;;;;1999.90;999.90;;;16.90;99.90;;;;;;5023159;28;20408;-85
2021/08/30 06:47:09;;;;;;;1999.90;999.90;;;16.80;99.90;;;;;;5022202;28;20424;-85
2021/08/30 06:49:52;;;;;;;1999.90;999.90;;;16.90;99.90;;;;;;4992282;28;20757;-85
2021/08/30 06:52:32;;;;;;;1999.90;999.90;;;16.90;99.90;;;;;;5039639;28;20423;-85
2021/08/30 06:55:25;;;;;;;1999.90;999.90;;;17.00;99.90;;;;;;5039690;28;20415;-85
2021/08/30 06:57:54;;;;;;;1999.90;999.90;;;17.00;99.90;;;;;;5017490;28;20411;-85
2021/08/30 07:00:19;;;;;;;1999.90;999.90;;;17.00;99.90;;;;;;5021503;28;20407;-85
2021/08/30 07:02:48;;;;;;;1999.90;999.90;;;17.00;99.90;;;;;;5040965;28;20414;-85
2021/08/30 07:05:14;;;;;;;1999.90;999.90;;;17.00;99.90;;;;;;5040200;28;20168;-85
2021/08/30 07:07:40;;;;;;;1999.90;999.90;;;17.00;99.90;;;;;;5022273;28;20424;-86
2021/08/30 07:10:06;;;;;;;1999.90;999.90;;;17.10;99.90;;;;;;5023177;28;20640;-85
2021/08/30 07:12:32;;;;;;;1999.90;999.90;;;17.00;99.90;;;;;;5039510;28;20547;-85
2021/08/30 07:14:57;;;;;;;1999.90;999.90;;;17.10;99.90;;;;;;5040332;28;20464;-85
2021/08/30 07:17:23;;;;;;;1999.90;999.90;;;17.00;99.90;;;;;;5040129;28;20214;-85
2021/08/30 07:19:49;;;;;;;1999.90;999.90;;;17.00;99.90;;;;;;5021905;28;20690;-85
2021/08/30 07:22:21;;;;;;;1999.90;999.90;;;16.90;99.90;;;;;;5120216;22;20249;-85
2021/08/30 07:24:47;;;;;;;1999.90;999.90;;;16.90;99.90;;;;;;5068601;28;20551;-85
2021/08/30 07:27:18;;;;;;;1999.90;999.90;;;16.90;99.90;;;;;;5051317;28;20423;-86
2021/08/30 07:29:53;;;;;;;1999.90;999.90;;;16.90;99.90;;;;;;5067949;28;20401;-85
2021/08/30 07:32:21;;;;;;;1999.90;999.90;;;17.00;99.90;;;;;;5050322;28;20398;-85
2021/08/30 07:34:53;;;;;;;1999.90;999.90;;;16.90;99.90;;;;;;5066315;28;20410;-84
2021/08/30 07:37:29;;;;;;;1999.90;999.90;;;16.90;99.90;;;;;;5048159;28;20446;-86
2021/08/30 07:40:02;;;;;;;1999.90;999.90;;;16.90;99.90;;;;;;5069333;28;20471;-85
2021/08/30 07:42:28;;;;;;;1999.90;999.90;;;16.80;99.90;;;;;;5069353;28;20555;-85
2021/08/30 07:45:08;;;;;;;1999.90;999.90;;;16.90;99.90;;;;;;5069173;28;20407;-86
2021/08/30 07:47:41;;;;;;;1999.90;999.90;;;16.90;99.90;;;;;;5068795;28;20241;-85
2021/08/30 07:50:08;;;;;;;1999.90;999.90;;;16.90;99.90;;;;;;5069492;28;20459;-84
2021/08/30 07:52:34;;;;;;;1999.90;999.90;;;16.90;99.90;;;;;;5069296;28;20424;-84
2021/08/30 07:55:00;;;;;;;1999.90;999.90;;;16.90;99.90;;;;;;5068097;28;20407;-83
2021/08/30 07:57:25;;;;;;;1999.90;999.90;;;16.90;99.90;;;;;;5087669;28;20188;-84
2021/08/30 07:59:51;;;;;;;1999.90;999.90;;;17.00;99.90;;;;;;5090380;28;20655;-84
2021/08/30 08:02:17;;;;;;;1999.90;999.90;;;17.10;99.90;;;;;;5072020;28;20421;-85
2021/08/30 08:04:42;;;;;;;1999.90;999.90;;;17.10;99.90;;;;;;5071928;28;20180;-85
2021/08/30 08:07:09;;;;;;;1999.90;999.90;;;17.10;99.90;;;;;;5145592;22;20248;-84
2021/08/30 08:09:35;;;;;;;1999.90;999.90;;;17.10;99.90;;;;;;5051421;28;20195;-84
2021/08/30 08:12:00;;;;;;;1999.90;999.90;;;17.10;99.90;;;;;;5069505;28;20403;-84
2021/08/30 08:14:26;;;;;;;1999.90;999.90;;;17.00;99.90;;;;;;5051471;28;20410;-85
2021/08/30 08:16:52;;;;;;;1999.90;999.90;;;17.00;99.90;;;;;;5070147;28;20200;-85
2021/08/30 08:19:17;;;;;;;1999.90;999.90;;;17.10;99.90;;;;;;5052355;28;20227;-85
2021/08/30 08:21:43;;;;;;;1999.90;999.90;;;17.20;99.90;;;;;;5069485;28;20579;-85
2021/08/30 08:24:10;;;;;;;1999.90;999.90;;;17.30;99.90;;;;;;5070907;28;20224;-84
2021/08/30 08:26:36;;;;;;;1999.90;999.90;;;17.40;99.90;;;;;;5053133;28;20558;-85
2021/08/30 08:29:03;;;;;;;1999.90;999.90;;;17.50;99.90;;;;;;5070140;28;20406;-85
2021/08/30 08:31:29;;;;;;;1999.90;999.90;;;17.70;99.90;;;;;;5070775;28;20411;-85
2021/08/30 08:33:55;;;;;;;1999.90;999.90;;;17.80;99.90;;;;;;5053309;28;20417;-84
2021/08/30 08:36:21;;;;;;;1999.90;999.90;;;17.90;99.90;;;;;;5070664;28;20434;-85
2021/08/30 08:38:47;;;;;;;1999.90;999.90;;;17.90;99.90;;;;;;5069245;28;20461;-84
2021/08/30 08:41:13;;;;;;;1999.90;999.90;;;18.00;99.90;;;;;;5069253;28;20469;-84
2021/08/30 08:43:41;;;;;;;1999.90;999.90;;;18.00;99.90;;;;;;5069788;28;20404;-85
2021/08/30 08:46:07;;;;;;;1999.90;999.90;;;18.00;99.90;;;;;;5070950;28;20419;-84
2021/08/30 08:48:34;;;;;;;1999.90;999.90;;;18.00;99.90;;;;;;5070034;28;20411;-85
2021/08/30 08:51:00;;;;;;;1999.90;999.90;;;18.00;99.90;;;;;;5070333;28;20160;-85
2021/08/30 08:53:26;;;;;;;1999.90;999.90;;;18.00;99.90;;;;;;5069679;28;20445;-85
2021/08/30 08:55:53;;;;;;;1999.90;999.90;;;18.20;99.90;;;;;;5071070;28;20630;-85
2021/08/30 08:58:20;;;;;;;1999.90;999.90;;;18.20;99.90;;;;;;5070757;28;20486;-85
2021/08/30 09:01:10;;;;;;;1999.90;999.90;;;18.30;99.90;;;;;;5067290;28;20463;-85
2021/08/30 09:03:46;;;;;;;1999.90;999.90;;;18.50;99.90;;;;;;5067207;28;20421;-86
2021/08/30 09:06:12;;;;;;;1999.90;999.90;;;18.70;99.90;;;;;;5049808;28;20442;-86
2021/08/30 09:08:43;;;;;;;1999.90;999.90;;;18.70;99.90;;;;;;5067860;28;20431;-86
2021/08/30 09:11:20;;;;;;;1999.90;999.90;;;18.70;99.90;;;;;;5066568;28;20386;-85
2021/08/30 09:13:52;;;;;;;1999.90;999.90;;;18.80;99.90;;;;;;5066193;28;20506;-86
2021/08/30 09:16:19;;;;;;;1999.90;999.90;;;18.80;99.90;;;;;;5068759;28;20930;-86
2021/08/30 09:18:45;;;;;;;1999.90;999.90;;;18.90;99.90;;;;;;5069197;28;20956;-86
2021/08/30 09:21:12;;;;;;;1999.90;999.90;;;19.00;99.90;;;;;;5069925;28;20407;-86
2021/08/30 09:27:29;;;;;;;1999.90;999.90;;;19.10;99.90;;;;;;4963732;29;20442;-85
2021/08/30 09:30:05;;;;;;;1999.90;999.90;;;19.10;99.90;;;;;;4962909;29;20930;-86
2021/08/30 09:33:16;;;;;;;1999.90;999.90;;;19.20;99.90;;;;;;4960663;29;20415;-85
2021/08/30 09:36:07;;;;;;;1999.90;999.90;;;19.30;99.90;;;;;;4939725;28;20436;-86
2021/08/30 09:38:41;;;;;;;1999.90;999.90;;;19.50;99.90;;;;;;5022858;28;20452;-85
2021/08/30 09:41:08;;;;;;;1999.90;999.90;;;19.60;99.90;;;;;;5023620;28;20432;-85
2021/08/30 09:43:37;;;;;;;1999.90;999.90;;;19.70;99.90;;;;;;5113631;22;20500;-86
2021/08/30 09:46:51;;;;;;;1999.90;999.90;;;19.70;99.90;;;;;;5032558;28;20439;-86
2021/08/30 09:49:10;;;;;;;1999.90;999.90;;;19.60;99.90;;;;;;5035822;28;20410;-86
2021/08/30 09:52:05;;;;;;;1999.90;999.90;;;19.50;99.90;;;;;;5032766;28;20453;-85
2021/08/30 09:54:31;;;;;;;1999.90;999.90;;;19.30;99.90;;;;;;5052766;28;20399;-86
2021/08/30 09:56:58;;;;;;;1999.90;999.90;;;19.20;99.90;;;;;;5052575;28;20480;-86
2021/08/30 09:59:26;;;;;;;1999.90;999.90;;;19.00;99.90;;;;;;5053256;28;20216;-85
2021/08/30 10:02:03;;;;;;;1999.90;999.90;;;19.00;99.90;;;;;;5051511;28;20399;-86
2021/08/30 10:04:50;;;;;;;1999.90;999.90;;;18.80;99.90;;;;;;5035243;28;20416;-86
2021/08/30 10:07:19;;;;;;;1999.90;999.90;;;18.60;99.90;;;;;;5054261;28;20430;-86
2021/08/30 10:09:47;;;;;;;1999.90;999.90;;;18.70;99.90;;;;;;5051895;28;20758;-85
2021/08/30 10:12:15;;;;;;;1999.90;999.90;;;18.70;99.90;;;;;;5035701;28;20420;-85
2021/08/30 10:14:41;;;;;;;1999.90;999.90;;;18.70;99.90;;;;;;5050871;28;20428;-85
2021/08/30 10:17:10;;;;;;;1999.90;999.90;;;18.70;99.90;;;;;;5051602;28;20415;-86
2021/08/30 10:19:39;;;;;;;1999.90;999.90;;;18.60;99.90;;;;;;5035055;28;20447;-86
2021/08/30 10:22:23;;;;;;;1999.90;999.90;;;18.70;99.90;;;;;;5035674;28;20438;-86
2021/08/30 10:24:49;;;;;;;1999.90;999.90;;;18.70;99.90;;;;;;5053801;28;20407;-86
2021/08/30 10:27:31;;;;;;;1999.90;999.90;;;18.80;99.90;;;;;;5052892;28;20427;-86
2021/08/30 10:30:12;;;;;;;1999.90;999.90;;;18.90;99.90;;;;;;5048617;28;20157;-85
2021/08/30 10:32:50;;;;;;;1999.90;999.90;;;19.10;99.90;;;;;;5046532;28;20412;-85
2021/08/30 10:35:24;;;;;;;1999.90;999.90;;;19.10;99.90;;;;;;5047266;28;20403;-85
2021/08/30 10:38:08;;;;;;;1999.90;999.90;;;19.10;99.90;;;;;;5045546;28;20404;-85
2021/08/30 10:40:40;;;;;;;1999.90;999.90;;;19.10;99.90;;;;;;5045633;28;20487;-85
2021/08/30 10:43:34;;;;;;;1999.90;999.90;;;19.00;99.90;;;;;;5047016;28;20452;-86
2021/08/30 10:46:02;;;;;;;1999.90;999.90;;;19.10;99.90;;;;;;5041785;28;20439;-85
2021/08/30 10:48:40;;;;;;;1999.90;999.90;;;19.10;99.90;;;;;;5041860;28;20823;-85
2021/08/30 10:51:14;;;;;;;1999.90;999.90;;;19.10;99.90;;;;;;5043085;28;20406;-85
2021/08/30 10:53:41;;;;;;;1999.90;999.90;;;19.10;99.90;;;;;;5028962;28;20407;-85
2021/08/30 10:56:09;;;;;;;1999.90;999.90;;;19.00;99.90;;;;;;5030006;28;20467;-85
2021/08/30 10:58:37;;;;;;;1999.90;999.90;;;18.90;99.90;;;;;;5049317;28;20436;-86
2021/08/30 11:01:13;;;;;;;1999.90;999.90;;;18.80;99.90;;;;;;5048089;28;20405;-86
2021/08/30 11:03:40;;;;;;;1999.90;999.90;;;18.60;99.90;;;;;;5048539;28;20411;-85
2021/08/30 11:06:12;;;;;;;1999.90;999.90;;;18.60;99.90;;;;;;5048538;28;20533;-85
2021/08/30 11:08:40;;;;;;;1999.90;999.90;;;18.60;99.90;;;;;;5049271;28;20412;-86
2021/08/30 11:11:15;;;;;;;1999.90;999.90;;;18.40;99.90;;;;;;5050165;28;20428;-86
2021/08/30 11:13:43;;;;;;;1999.90;999.90;;;18.40;99.90;;;;;;5032808;28;20416;-85
2021/08/30 11:16:21;;;;;;;1999.90;999.90;;;18.50;99.90;;;;;;5030064;28;20436;-85
2021/08/30 11:19:13;;;;;;;1999.90;999.90;;;18.60;99.90;;;;;;5047032;28;20439;-86
2021/08/30 11:22:04;;;;;;;1999.90;999.90;;;18.70;99.90;;;;;;5037091;28;20420;-85
2021/08/30 11:24:33;;;;;;;1999.90;999.90;;;18.70;99.90;;;;;;5045020;28;20805;-85
2021/08/30 11:27:07;;;;;;;1999.90;999.90;;;18.80;99.90;;;;;;5044856;28;20803;-86
2021/08/30 11:29:39;;;;;;;1999.90;999.90;;;18.90;99.90;;;;;;5028091;28;20415;-85
2021/08/30 11:32:05;;;;;;;1999.90;999.90;;;19.10;99.90;;;;;;5047037;28;20898;-86
2021/08/30 11:34:33;;;;;;;1999.90;999.90;;;19.20;99.90;;;;;;5029584;28;20400;-86
2021/08/30 11:37:01;;;;;;;1999.90;999.90;;;19.40;99.90;;;;;;5046429;28;20857;-85
2021/08/30 11:39:32;;;;;;;1999.90;999.90;;;19.50;99.90;;;;;;5043955;28;20530;-84
2021/08/30 11:42:00;;;;;;;1999.90;999.90;;;19.60;99.90;;;;;;5047797;28;20427;-86
2021/08/30 11:44:29;;;;;;;1999.90;999.90;;;19.80;99.90;;;;;;5052629;28;20399;-86
2021/08/30 11:46:56;;;;;;;1999.90;999.90;;;19.90;99.90;;;;;;5051852;28;20419;-86
2021/08/30 11:49:25;;;;;;;1999.90;999.90;;;20.00;99.90;;;;;;5050399;28;20403;-86
2021/08/30 11:51:53;;;;;;;1999.90;999.90;;;20.00;99.90;;;;;;5033138;28;20412;-84
2021/08/30 11:54:32;;;;;;;1999.90;999.90;;;20.10;99.90;;;;;;5050508;28;20404;-85
2021/08/30 11:57:07;;;;;;;1999.90;999.90;;;20.30;99.90;;;;;;5032233;28;20436;-86
2021/08/30 11:59:47;;;;;;;1999.90;999.90;;;20.30;99.90;;;;;;5050615;28;20786;-85
2021/08/30 12:02:16;;;;;;;1999.90;999.90;;;20.20;99.90;;;;;;5051066;28;20389;-86
2021/08/30 12:04:49;;;;;;;1999.90;999.90;;;20.30;99.90;;;;;;5050964;28;20415;-86
2021/08/30 12:07:17;;;;;;;1999.90;999.90;;;20.30;99.90;;;;;;5033440;28;20438;-86
2021/08/30 12:09:55;;;;;;;1999.90;999.90;;;20.40;99.90;;;;;;5052404;28;20398;-86
2021/08/30 12:12:32;;;;;;;1999.90;999.90;;;20.30;99.90;;;;;;5051650;28;20389;-85
2021/08/30 12:14:59;;;;;;;1999.90;999.90;;;20.40;99.90;;;;;;5032438;28;20408;-85
2021/08/30 12:17:35;;;;;;;1999.90;999.90;;;20.60;99.90;;;;;;5032600;28;20512;-85
2021/08/30 12:20:08;;;;;;;1999.90;999.90;;;20.80;99.90;;;;;;5033128;28;20963;-85
2021/08/30 12:22:36;;;;;;;1999.90;999.90;;;20.90;99.90;;;;;;5049712;28;20408;-85
2021/08/30 12:25:08;;;;;;;1999.90;999.90;;;20.90;99.90;;;;;;5050580;28;20408;-85
2021/08/30 12:27:37;;;;;;;1999.90;999.90;;;21.00;99.90;;;;;;5050418;28;20416;-85
2021/08/30 12:30:25;;;;;;;1999.90;999.90;;;21.10;99.90;;;;;;5051039;28;20485;-86
2021/08/30 12:33:01;;;;;;;1999.90;999.90;;;21.10;99.90;;;;;;5051407;28;20388;-86
2021/08/30 12:35:32;;;;;;;1999.90;999.90;;;21.20;99.90;;;;;;5032566;28;20437;-86
2021/08/30 12:38:26;;;;;;;1999.90;999.90;;;21.20;99.90;;;;;;5034148;28;20409;-85
2021/08/30 12:40:55;;;;;;;1999.90;999.90;;;21.40;99.90;;;;;;5034582;28;20411;-85
2021/08/30 12:43:21;;;;;;;1999.90;999.90;;;21.50;99.90;;;;;;5050822;28;20430;-85
2021/08/30 12:45:49;;;;;;;1999.90;999.90;;;21.60;99.90;;;;;;5050581;28;20948;-85
2021/08/30 12:48:16;;;;;;;1999.90;999.90;;;21.60;99.90;;;;;;5035399;28;20500;-86
2021/08/30 12:50:43;;;;;;;1999.90;999.90;;;21.60;99.90;;;;;;5052872;28;20418;-86
2021/08/30 12:53:09;;;;;;;1999.90;999.90;;;21.60;99.90;;;;;;5051722;28;20406;-86
2021/08/30 12:55:36;;;;;;;1999.90;999.90;;;21.40;99.90;;;;;;5034756;28;20454;-86
2021/08/30 12:58:02;;;;;;;1999.90;999.90;;;21.40;99.90;;;;;;5050598;28;20408;-85
2021/08/30 13:00:28;;;;;;;1999.90;999.90;;;21.30;99.90;;;;;;5034432;28;20427;-85
2021/08/30 13:02:54;;;;;;;1999.90;999.90;;;21.30;99.90;;;;;;5051781;28;20492;-85
2021/08/30 13:05:25;;;;;;;1999.90;999.90;;;21.40;99.90;;;;;;5051208;28;20177;-85
2021/08/30 13:07:52;;;;;;;1999.90;999.90;;;21.60;99.90;;;;;;5035486;28;20415;-85
2021/08/30 13:10:19;;;;;;;1999.90;999.90;;;21.70;99.90;;;;;;5035002;28;20404;-85
2021/08/30 13:12:45;;;;;;;1999.90;999.90;;;21.70;99.90;;;;;;5052332;28;20410;-86
2021/08/30 13:15:13;;;;;;;1999.90;999.90;;;21.60;99.90;;;;;;5052557;28;20404;-86
2021/08/30 13:17:40;;;;;;;1999.90;999.90;;;21.40;99.90;;;;;;5051426;28;20260;-86
2021/08/30 13:20:07;;;;;;;1999.90;999.90;;;21.40;99.90;;;;;;5052163;28;20476;-85
2021/08/30 13:22:33;;;;;;;1999.90;999.90;;;21.40;99.90;;;;;;5051246;28;20412;-85
2021/08/30 13:24:59;;;;;;;1999.90;999.90;;;21.30;99.90;;;;;;5052051;28;20413;-85
2021/08/30 13:27:25;;;;;;;1999.90;999.90;;;21.20;99.90;;;;;;5051837;28;20455;-85
2021/08/30 13:29:51;;;;;;;1999.90;999.90;;;21.30;99.90;;;;;;5051199;28;20418;-85
2021/08/30 13:32:17;;;;;;;1999.90;999.90;;;21.30;99.90;;;;;;5051969;28;20417;-85
2021/08/30 13:34:43;;;;;;;1999.90;999.90;;;21.30;99.90;;;;;;5033181;28;20408;-85
2021/08/30 13:37:09;;;;;;;1999.90;999.90;;;21.30;99.90;;;;;;5035102;28;20437;-85
2021/08/30 13:39:36;;;;;;;1999.90;999.90;;;21.30;99.90;;;;;;5051779;28;20458;-85
2021/08/30 13:42:02;;;;;;;1999.90;999.90;;;21.20;99.90;;;;;;5051783;28;20449;-85
2021/08/30 13:44:28;;;;;;;1999.90;999.90;;;21.20;99.90;;;;;;5018175;28;20416;-85
2021/08/30 13:46:54;;;;;;;1999.90;999.90;;;21.20;99.90;;;;;;5051248;28;20442;-85
2021/08/30 13:49:19;;;;;;;1999.90;999.90;;;21.10;99.90;;;;;;5051191;28;20227;-85
2021/08/30 13:51:45;;;;;;;1999.90;999.90;;;21.20;99.90;;;;;;5051886;28;20168;-85
2021/08/30 13:54:12;;;;;;;1999.90;999.90;;;21.10;99.90;;;;;;5052032;28;20180;-85
2021/08/30 13:56:37;;;;;;;1999.90;999.90;;;20.90;99.90;;;;;;5035314;28;20438;-85
2021/08/30 13:59:03;;;;;;;1999.90;999.90;;;20.90;99.90;;;;;;5052237;28;20449;-85
2021/08/30 14:01:29;;;;;;;1999.90;999.90;;;20.80;99.90;;;;;;5033655;28;20236;-85
2021/08/30 14:03:55;;;;;;;1999.90;999.90;;;20.70;99.90;;;;;;5051965;28;20168;-85
2021/08/30 14:06:21;;;;;;;1999.90;999.90;;;20.70;99.90;;;;;;5052178;28;20458;-85
2021/08/30 14:08:47;;;;;;;1999.90;999.90;;;20.70;99.90;;;;;;5051200;28;20651;-85
2021/08/30 14:11:13;;;;;;;1999.90;999.90;;;20.70;99.90;;;;;;5054491;28;20261;-85
2021/08/30 14:13:38;;;;;;;1999.90;999.90;;;20.70;99.90;;;;;;5055854;28;20403;-85
2021/08/30 14:16:04;;;;;;;1999.90;999.90;;;20.70;99.90;;;;;;5055144;28;20424;-85
2021/08/30 14:18:30;;;;;;;1999.90;999.90;;;20.60;99.90;;;;;;5055129;28;20180;-85
2021/08/30 14:20:56;;;;;;;1999.90;999.90;;;20.50;99.90;;;;;;5038431;28;20548;-85
2021/08/30 14:23:22;;;;;;;1999.90;999.90;;;20.50;99.90;;;;;;5054520;28;20415;-85
2021/08/30 14:25:48;;;;;;;1999.90;999.90;;;20.50;99.90;;;;;;5037095;28;20187;-85
2021/08/30 14:28:15;;;;;;;1999.90;999.90;;;20.40;99.90;;;;;;5051744;28;20411;-84
2021/08/30 14:30:41;;;;;;;1999.90;999.90;;;20.40;99.90;;;;;;5053921;28;20409;-85
2021/08/30 14:33:07;;;;;;;1999.90;999.90;;;20.40;99.90;;;;;;5036511;28;20414;-85
2021/08/30 14:35:32;;;;;;;1999.90;999.90;;;20.30;99.90;;;;;;5053595;28;20419;-85
2021/08/30 14:37:58;;;;;;;1999.90;999.90;;;20.30;99.90;;;;;;5052885;28;20186;-85
2021/08/30 14:40:24;;;;;;;1999.90;999.90;;;20.30;99.90;;;;;;5035653;28;20169;-84
2021/08/30 14:42:50;;;;;;;1999.90;999.90;;;20.30;99.90;;;;;;5052122;28;20186;-85
2021/08/30 14:45:16;;;;;;;1999.90;999.90;;;20.30;99.90;;;;;;5053015;28;20413;-84
2021/08/30 14:47:43;;;;;;;1999.90;999.90;;;20.30;99.90;;;;;;5036084;28;20624;-85
2021/08/30 14:50:09;;;;;;;1999.90;999.90;;;20.20;99.90;;;;;;5053485;28;20404;-85
2021/08/30 14:52:35;;;;;;;1999.90;999.90;;;20.20;99.90;;;;;;5053281;28;20431;-85
2021/08/30 14:55:02;;;;;;;1999.90;999.90;;;20.20;99.90;;;;;;5052950;28;20413;-85
2021/08/30 14:57:28;;;;;;;1999.90;999.90;;;20.30;99.90;;;;;;5053427;28;20433;-85